createdAt,value
2024-04-12T00:01:43.679Z,81.84
2024-04-12T00:04:10.686Z,80.39
2024-04-12T00:06:40.506Z,81.92
2024-04-12T00:09:10.700Z,81.77
2024-04-12T00:11:40.664Z,81.58
2024-04-12T00:14:09.318Z,81.39
2024-04-12T00:16:39.576Z,81.58
2024-04-12T00:19:13.715Z,82.27
2024-04-12T00:21:42.766Z,81.47
2024-04-12T00:24:12.507Z,82.21
2024-04-12T00:26:43.748Z,82.70
2024-04-12T00:29:32.908Z,82.27
2024-04-12T00:32:06.782Z,82.01
2024-04-12T00:34:39.822Z,81.98
2024-04-12T00:37:16.649Z,82.79
2024-04-12T00:39:49.142Z,82.50
2024-04-12T00:42:27.308Z,82.23
2024-04-12T00:44:55.848Z,82.46
2024-04-12T00:47:23.162Z,82.48
2024-04-12T00:49:53.033Z,82.43
2024-04-12T00:52:29.481Z,82.22
2024-04-12T00:55:08.821Z,82.43
2024-04-12T00:57:39.427Z,82.41
2024-04-12T01:00:10.884Z,82.27
2024-04-12T01:02:40.764Z,81.58
2024-04-12T01:05:12.278Z,82.95
2024-04-12T01:07:49.916Z,82.89
2024-04-12T01:10:22.627Z,82.73
2024-04-12T01:12:49.568Z,82.89
2024-04-12T01:15:20.435Z,82.34
2024-04-12T01:17:48.354Z,82.33
2024-04-12T01:20:17.078Z,82.90
2024-04-12T01:22:46.721Z,81.73
2024-04-12T01:25:14.715Z,82.68
2024-04-12T01:27:41.839Z,82.71
2024-04-12T01:30:08.886Z,83.21
2024-04-12T01:32:36.405Z,82.21
2024-04-12T01:35:04.813Z,82.50
2024-04-12T01:37:32.312Z,82.13
2024-04-12T01:40:03.961Z,82.17
2024-04-12T01:42:31.711Z,83.19
2024-04-12T01:45:17.439Z,81.84
2024-04-12T01:47:44.818Z,82.21
2024-04-12T01:50:13.961Z,80.84
2024-04-12T01:52:57.050Z,81.01
2024-04-12T01:55:24.600Z,81.54
2024-04-12T01:57:54.759Z,81.45
2024-04-12T02:00:22.005Z,82.46
2024-04-12T02:02:53.163Z,82.99
2024-04-12T02:05:30.218Z,83.04
2024-04-12T02:07:57.515Z,82.33
2024-04-12T02:10:24.407Z,81.61
2024-04-12T02:12:55.149Z,81.62
2024-04-12T02:15:26.850Z,81.78
2024-04-12T02:17:59.981Z,81.12
2024-04-12T02:20:35.466Z,81.94
2024-04-12T02:23:06.218Z,82.77
2024-04-12T02:25:42.971Z,82.76
2024-04-12T02:28:13.334Z,81.65
2024-04-12T02:30:45.125Z,81.53
2024-04-12T02:33:12.948Z,81.36
2024-04-12T02:35:42.939Z,81.07
2024-04-12T02:38:17.078Z,80.49
2024-04-12T02:40:44.339Z,80.76
2024-04-12T02:43:11.589Z,81.14
2024-04-12T02:45:38.524Z,81.75
2024-04-12T02:48:05.742Z,82.32
2024-04-12T02:50:32.820Z,81.49
2024-04-12T02:53:05.024Z,82.69
2024-04-12T02:55:32.151Z,81.69
2024-04-12T02:57:59.189Z,81.84
2024-04-12T03:00:27.465Z,82.37
2024-04-12T03:02:54.529Z,82.58
2024-04-12T03:05:21.564Z,81.56
2024-04-12T03:07:48.486Z,80.91
2024-04-12T03:10:19.951Z,80.28
2024-04-12T03:12:47.429Z,80.12
2024-04-12T03:15:16.194Z,80.56
2024-04-12T03:17:48.134Z,80.94
2024-04-12T03:20:19.775Z,80.86
2024-04-12T03:22:46.847Z,81.27
2024-04-12T03:25:13.779Z,82.35
2024-04-12T03:27:41.032Z,83.09
2024-04-12T03:30:15.532Z,82.16
2024-04-12T03:32:45.809Z,82.91
2024-04-12T03:35:14.045Z,82.83
2024-04-12T03:37:41.035Z,83.25
2024-04-12T03:40:18.500Z,81.39
2024-04-12T03:42:45.969Z,80.72
2024-04-12T03:45:15.978Z,81.17
2024-04-12T03:47:46.028Z,82.40
2024-04-12T03:50:17.136Z,82.85
2024-04-12T03:52:46.942Z,81.60
2024-04-12T03:55:13.882Z,82.04
2024-04-12T03:57:40.850Z,82.45
2024-04-12T04:00:12.359Z,83.34
2024-04-12T04:02:40.834Z,83.07
2024-04-12T04:05:17.444Z,83.33
2024-04-12T04:07:48.096Z,83.13
2024-04-12T04:10:22.110Z,82.63
2024-04-12T04:12:50.731Z,82.94
2024-04-12T04:15:17.907Z,83.31
2024-04-12T04:17:50.676Z,83.36
2024-04-12T04:20:18.495Z,83.40
2024-04-12T04:22:50.562Z,84.31
2024-04-12T04:25:20.425Z,83.71
2024-04-12T04:27:47.682Z,84.11
2024-04-12T04:30:19.447Z,83.15
2024-04-12T04:32:47.138Z,83.23
2024-04-12T04:35:14.765Z,82.88
2024-04-12T04:37:42.124Z,82.27
2024-04-12T04:40:18.070Z,82.13
2024-04-12T04:42:47.048Z,82.10
2024-04-12T04:45:19.082Z,82.30
2024-04-12T04:47:46.370Z,81.78
2024-04-12T04:50:18.432Z,81.02
2024-04-12T04:52:48.243Z,81.00
2024-04-12T04:55:15.241Z,80.97
2024-04-12T04:57:45.394Z,79.71
2024-04-12T05:00:19.833Z,79.79
2024-04-12T05:02:55.464Z,79.37
2024-04-12T05:05:29.387Z,79.10
2024-04-12T05:07:57.451Z,78.89
2024-04-12T05:10:25.894Z,78.75
2024-04-12T05:12:52.849Z,77.47
2024-04-12T05:15:39.729Z,78.59
2024-04-12T05:18:06.849Z,77.26
2024-04-12T05:20:40.615Z,77.79
2024-04-12T05:23:09.704Z,76.83
2024-04-12T05:25:36.883Z,77.03
2024-04-12T05:28:08.127Z,76.48
2024-04-12T05:30:38.419Z,76.08
2024-04-12T05:33:05.829Z,75.32
2024-04-12T05:35:32.848Z,75.44
2024-04-12T05:38:02.846Z,75.06
2024-04-12T05:40:30.013Z,75.33
2024-04-12T05:42:56.932Z,74.19
2024-04-12T05:45:23.984Z,74.55
2024-04-12T05:47:56.011Z,73.23
2024-04-12T05:50:23.037Z,73.15
2024-04-12T05:52:53.990Z,72.75
2024-04-12T05:55:20.916Z,71.63
2024-04-12T05:57:48.595Z,71.68
2024-04-12T06:00:16.170Z,70.52
2024-04-12T06:02:45.220Z,69.66
2024-04-12T06:05:19.563Z,70.12
2024-04-12T06:07:48.643Z,68.48
2024-04-12T06:10:18.398Z,69.59
2024-04-12T06:12:47.126Z,68.43
2024-04-12T06:15:17.287Z,68.23
2024-04-12T06:17:44.674Z,70.08
2024-04-12T06:20:11.673Z,69.06
2024-04-12T06:22:38.583Z,66.68
2024-04-12T06:25:09.463Z,66.43
2024-04-12T06:27:36.467Z,66.02
2024-04-12T06:30:04.105Z,67.41
2024-04-12T06:32:31.079Z,66.96
2024-04-12T06:34:58.698Z,67.66
2024-04-12T06:37:25.608Z,65.10
2024-04-12T06:39:57.064Z,64.25
2024-04-12T06:42:24.196Z,63.94
2024-04-12T06:44:51.174Z,61.52
2024-04-12T06:47:21.068Z,61.56
2024-04-12T06:49:48.074Z,61.02
2024-04-12T06:52:21.401Z,61.42
2024-04-12T06:54:48.396Z,62.53
2024-04-12T06:57:19.408Z,60.90
2024-04-12T06:59:54.563Z,58.43
2024-04-12T07:02:25.652Z,58.83
2024-04-12T07:04:56.152Z,59.34
2024-04-12T07:07:25.827Z,55.98
2024-04-12T07:09:59.200Z,55.63
2024-04-12T07:12:28.659Z,54.46
2024-04-12T07:14:55.902Z,53.35
2024-04-12T07:17:24.388Z,52.80
2024-04-12T07:19:51.647Z,53.64
2024-04-12T07:22:20.190Z,55.92
2024-04-12T07:24:54.146Z,52.50
2024-04-12T07:27:25.155Z,52.96
2024-04-12T07:29:52.219Z,51.92
2024-04-12T07:32:23.375Z,56.20
2024-04-12T07:34:50.574Z,55.80
2024-04-12T07:37:33.061Z,56.78
2024-04-12T07:40:19.085Z,52.61
2024-04-12T07:42:47.278Z,51.34
2024-04-12T07:45:18.440Z,53.79
2024-04-12T07:47:55.226Z,51.01
2024-04-12T07:50:32.958Z,52.00
2024-04-12T07:52:59.938Z,54.41
2024-04-12T07:55:26.891Z,56.58
2024-04-12T07:57:53.977Z,53.10
2024-04-12T08:00:36.431Z,53.70
2024-04-12T08:03:07.900Z,51.61
2024-04-12T08:05:43.453Z,51.76
2024-04-12T08:08:15.905Z,51.44
2024-04-12T08:10:43.811Z,49.15
2024-04-12T08:13:24.310Z,46.61
2024-04-12T08:15:53.001Z,46.58
2024-04-12T08:18:22.200Z,43.13
2024-04-12T08:20:49.362Z,46.03
2024-04-12T08:23:19.183Z,44.48
2024-04-12T08:25:49.787Z,43.27
2024-04-12T08:28:17.473Z,42.56
2024-04-12T08:30:53.205Z,43.43
2024-04-12T08:33:26.085Z,45.43
2024-04-12T08:35:58.950Z,44.04
2024-04-12T08:38:25.945Z,48.56
2024-04-12T08:40:53.776Z,44.62
2024-04-12T08:43:21.136Z,44.32
2024-04-12T08:45:49.283Z,46.93
2024-04-12T08:48:17.187Z,47.62
2024-04-12T08:50:49.552Z,46.92
2024-04-12T08:53:18.817Z,44.86
2024-04-12T08:55:46.560Z,41.90
2024-04-12T08:58:21.633Z,42.61
2024-04-12T09:00:48.801Z,43.58
2024-04-12T09:03:26.852Z,43.42
2024-04-12T09:05:54.788Z,41.38
2024-04-12T09:08:23.583Z,39.57
2024-04-12T09:10:54.635Z,40.25
2024-04-12T09:13:22.645Z,38.88
2024-04-12T09:15:51.845Z,36.49
2024-04-12T09:18:27.510Z,37.64
2024-04-12T09:21:04.089Z,37.69
2024-04-12T09:23:35.004Z,39.53
2024-04-12T09:26:22.139Z,40.16
2024-04-12T09:28:49.442Z,41.22
2024-04-12T09:31:35.173Z,40.70
2024-04-12T09:34:22.750Z,42.40
2024-04-12T09:37:03.453Z,41.00
2024-04-12T09:39:59.016Z,43.25
2024-04-12T09:42:46.302Z,41.24
2024-04-12T09:45:18.243Z,39.83
2024-04-12T09:48:04.837Z,38.38
2024-04-12T09:50:50.585Z,37.94
2024-04-12T09:53:36.121Z,35.82
2024-04-12T09:56:28.266Z,34.02
2024-04-12T09:59:18.250Z,32.29
2024-04-12T10:02:03.911Z,33.77
2024-04-12T10:04:52.361Z,33.98
2024-04-12T10:07:39.949Z,33.55
2024-04-12T10:10:26.423Z,33.32
2024-04-12T10:13:12.506Z,33.34
2024-04-12T10:15:57.938Z,32.22
2024-04-12T10:18:46.979Z,32.11
2024-04-12T10:21:34.569Z,31.67
2024-04-12T10:24:23.192Z,33.41
2024-04-12T10:27:08.753Z,30.93
2024-04-12T10:29:54.347Z,31.26
2024-04-12T10:32:40.014Z,31.11
2024-04-12T10:35:25.532Z,32.55
2024-04-12T10:37:52.470Z,19.81
2024-04-12T10:40:22.937Z,13.51
2024-04-12T10:42:53.362Z,10.71
2024-04-12T10:45:20.484Z,11.70
2024-04-12T10:47:47.715Z,10.96
2024-04-12T10:50:14.978Z,12.70
2024-04-12T10:52:44.034Z,8.80
2024-04-12T10:55:10.943Z,8.26
2024-04-12T10:57:41.580Z,8.87
2024-04-12T11:00:16.330Z,8.60
2024-04-12T11:02:53.907Z,8.77
2024-04-12T11:05:34.534Z,8.50
2024-04-12T11:08:12.347Z,6.58
2024-04-12T11:10:56.487Z,8.63
2024-04-12T11:13:30.277Z,9.42
2024-04-12T11:15:57.263Z,9.47
2024-04-12T11:18:42.830Z,8.75
2024-04-12T11:21:28.434Z,10.78
2024-04-12T11:24:20.132Z,10.96
2024-04-12T11:27:06.017Z,8.71
2024-04-12T11:29:51.919Z,9.73
2024-04-12T11:32:19.568Z,7.18
2024-04-12T11:34:47.279Z,9.57
2024-04-12T11:37:16.658Z,8.54
2024-04-12T11:39:43.686Z,9.98
2024-04-12T11:42:19.701Z,8.84
2024-04-12T11:44:49.074Z,8.72
2024-04-12T11:47:17.499Z,10.26
2024-04-12T11:49:46.491Z,10.22
2024-04-12T11:52:19.796Z,12.15
2024-04-12T11:54:54.203Z,11.69
2024-04-12T11:57:24.834Z,9.58
2024-04-12T12:00:01.513Z,11.73
2024-04-12T12:02:33.561Z,12.02
2024-04-12T12:05:00.870Z,14.19
2024-04-12T12:07:28.375Z,11.57
2024-04-12T12:09:55.650Z,12.84
2024-04-12T12:12:28.180Z,12.13
2024-04-12T12:14:55.612Z,11.16
2024-04-12T12:17:22.631Z,10.30
2024-04-12T12:19:51.370Z,11.51
2024-04-12T12:22:19.836Z,10.09
2024-04-12T12:24:47.080Z,9.47
2024-04-12T12:27:14.291Z,11.56
2024-04-12T12:29:43.579Z,8.72
2024-04-12T12:32:10.747Z,8.14
2024-04-12T12:34:44.635Z,7.52
2024-04-12T12:37:11.620Z,5.25
2024-04-12T12:39:38.676Z,6.55
2024-04-12T12:42:06.583Z,7.31
2024-04-12T12:44:33.548Z,7.65
2024-04-12T12:47:00.615Z,7.40
2024-04-12T12:49:27.618Z,11.64
2024-04-12T12:51:54.601Z,9.39
2024-04-12T12:54:21.559Z,8.39
2024-04-12T12:56:48.692Z,9.82
2024-04-12T12:59:15.679Z,12.99
2024-04-12T13:01:43.002Z,13.43
2024-04-12T13:04:10.073Z,17.71
2024-04-12T13:06:37.088Z,16.69
2024-04-12T13:09:09.760Z,14.35
2024-04-12T13:11:37.643Z,15.86
2024-04-12T13:14:10.678Z,13.82
2024-04-12T13:16:42.974Z,13.32
2024-04-12T13:19:16.863Z,14.82
2024-04-12T13:21:44.028Z,15.87
2024-04-12T13:24:14.909Z,16.65
2024-04-12T13:26:51.578Z,15.87
2024-04-12T13:29:19.139Z,15.09
2024-04-12T13:31:51.420Z,12.27
2024-04-12T13:34:19.806Z,17.63
2024-04-12T13:36:48.816Z,16.23
2024-04-12T13:39:16.270Z,15.51
2024-04-12T13:41:46.329Z,9.87
2024-04-12T13:44:26.317Z,9.40
2024-04-12T13:47:12.493Z,9.42
2024-04-12T13:49:58.175Z,11.98
2024-04-12T13:52:26.145Z,11.70
2024-04-12T13:54:53.074Z,9.45
2024-04-12T13:57:25.507Z,15.31
2024-04-12T13:59:53.195Z,18.30
2024-04-12T14:02:20.268Z,21.15
2024-04-12T14:04:47.616Z,21.52
2024-04-12T14:07:16.141Z,22.20
2024-04-12T14:09:43.142Z,20.84
2024-04-12T14:12:11.448Z,21.15
2024-04-12T14:14:38.465Z,22.59
2024-04-12T14:17:06.692Z,21.04
2024-04-12T14:19:33.852Z,22.58
2024-04-12T14:22:00.830Z,23.29
2024-04-12T14:24:46.813Z,22.97
2024-04-12T14:27:14.100Z,22.96
2024-04-12T14:29:41.279Z,20.61
2024-04-12T14:32:08.541Z,23.32
2024-04-12T14:34:36.226Z,17.36
2024-04-12T14:37:04.275Z,16.65
2024-04-12T14:39:31.301Z,17.02
2024-04-12T14:41:58.236Z,15.58
2024-04-12T14:44:25.277Z,16.29
2024-04-12T14:46:52.276Z,18.12
2024-04-12T14:49:19.225Z,17.83
2024-04-12T14:51:46.185Z,16.72
2024-04-12T14:54:14.841Z,16.34
2024-04-12T14:56:43.938Z,15.68
2024-04-12T14:59:12.720Z,15.02
2024-04-12T15:01:39.800Z,15.43
2024-04-12T15:04:25.503Z,14.80
2024-04-12T15:07:11.155Z,17.13
2024-04-12T15:09:56.557Z,15.83
2024-04-12T15:12:42.152Z,17.85
2024-04-12T15:15:27.736Z,17.04
2024-04-12T15:18:13.378Z,13.85
2024-04-12T15:20:58.916Z,14.67
2024-04-12T15:23:44.563Z,14.77
2024-04-12T15:26:30.613Z,15.03
2024-04-12T15:29:16.126Z,13.96
2024-04-12T15:32:01.706Z,14.68
2024-04-12T15:34:47.420Z,16.94
2024-04-12T15:37:33.103Z,13.92
2024-04-12T15:40:18.789Z,16.08
2024-04-12T15:43:04.287Z,15.47
2024-04-12T15:45:49.778Z,15.64
2024-04-12T15:48:16.779Z,14.03
2024-04-12T15:50:50.840Z,17.28
2024-04-12T15:53:24.567Z,20.74
2024-04-12T15:55:54.316Z,21.98
2024-04-12T15:58:46.083Z,23.66
2024-04-12T16:01:31.882Z,24.64
2024-04-12T16:04:21.168Z,23.41
2024-04-12T16:07:06.737Z,24.41
2024-04-12T16:09:52.935Z,24.06
2024-04-12T16:12:20.201Z,23.70
2024-04-12T16:14:47.220Z,25.12
2024-04-12T16:17:15.942Z,25.87
2024-04-12T16:19:43.032Z,26.50
2024-04-12T16:22:10.221Z,27.39
2024-04-12T16:24:37.163Z,28.60
2024-04-12T16:27:05.889Z,28.57
2024-04-12T16:29:32.864Z,29.09
2024-04-12T16:31:59.762Z,31.95
2024-04-12T16:34:26.807Z,30.38
2024-04-12T16:36:53.768Z,32.04
2024-04-12T16:39:20.845Z,31.43
2024-04-12T16:41:50.888Z,31.53
2024-04-12T16:44:17.919Z,32.93
2024-04-12T16:46:45.262Z,33.96
2024-04-12T16:49:12.531Z,33.45
2024-04-12T16:51:40.649Z,34.45
2024-04-12T16:54:07.673Z,34.64
2024-04-12T16:56:35.586Z,35.68
2024-04-12T16:59:05.831Z,34.89
2024-04-12T17:01:33.451Z,34.80
2024-04-12T17:04:01.551Z,35.70
2024-04-12T17:06:29.966Z,36.52
2024-04-12T17:08:57.058Z,36.49
2024-04-12T17:11:27.315Z,37.73
2024-04-12T17:13:54.325Z,38.95
2024-04-12T17:16:21.763Z,38.20
2024-04-12T17:18:49.088Z,38.88
2024-04-12T17:21:16.213Z,40.87
2024-04-12T17:23:43.192Z,42.71
2024-04-12T17:26:11.499Z,44.41
2024-04-12T17:28:39.354Z,44.38
2024-04-12T17:31:09.932Z,45.05
2024-04-12T17:33:36.930Z,42.65
2024-04-12T17:36:07.471Z,43.34
2024-04-12T17:38:36.525Z,44.35
2024-04-12T17:41:03.935Z,46.09
2024-04-12T17:43:30.839Z,49.76
2024-04-12T17:45:58.265Z,48.64
2024-04-12T17:48:25.591Z,50.35
2024-04-12T17:50:53.108Z,52.06
2024-04-12T17:53:20.050Z,52.20
2024-04-12T17:55:46.955Z,51.66
2024-04-12T17:58:14.000Z,54.24
2024-04-12T18:00:40.926Z,53.66
2024-04-12T18:03:09.667Z,54.48
2024-04-12T18:05:38.701Z,55.51
2024-04-12T18:08:06.148Z,55.88
2024-04-12T18:10:33.050Z,55.60
2024-04-12T18:12:59.970Z,56.09
2024-04-12T18:15:29.015Z,56.88
2024-04-12T18:17:56.099Z,58.37
2024-04-12T18:20:25.638Z,58.59
2024-04-12T18:22:53.643Z,60.17
2024-04-12T18:25:20.748Z,59.98
2024-04-12T18:27:47.833Z,59.83
2024-04-12T18:30:14.802Z,60.14
2024-04-12T18:32:42.554Z,60.57
2024-04-12T18:35:13.995Z,62.04
2024-04-12T18:38:01.294Z,61.28
2024-04-12T18:40:46.959Z,61.74
2024-04-12T18:43:32.580Z,62.30
2024-04-12T18:46:02.324Z,61.94
2024-04-12T18:48:29.343Z,62.74
2024-04-12T18:50:56.617Z,63.81
2024-04-12T18:53:24.794Z,63.22
2024-04-12T18:55:55.033Z,64.77
2024-04-12T18:58:21.968Z,64.63
2024-04-12T19:00:49.667Z,64.47
2024-04-12T19:03:16.910Z,65.73
2024-04-12T19:05:45.591Z,65.14
2024-04-12T19:08:12.587Z,66.16
2024-04-12T19:10:41.012Z,66.45
2024-04-12T19:13:08.772Z,67.44
2024-04-12T19:15:41.971Z,67.45
2024-04-12T19:18:10.840Z,67.99
2024-04-12T19:20:44.230Z,68.25
2024-04-12T19:23:11.258Z,68.36
2024-04-12T19:25:38.202Z,68.44
2024-04-12T19:28:05.967Z,68.74
2024-04-12T19:30:33.025Z,68.39
2024-04-12T19:33:00.686Z,68.94
2024-04-12T19:35:27.777Z,69.33
2024-04-12T19:37:54.896Z,69.37
2024-04-12T19:40:21.835Z,69.90
2024-04-12T19:42:48.746Z,70.31
2024-04-12T19:45:15.846Z,70.65
2024-04-12T19:47:42.851Z,70.64
2024-04-12T19:50:10.797Z,70.14
2024-04-12T19:52:42.286Z,70.11
2024-04-12T19:55:12.384Z,70.32
2024-04-12T19:57:39.354Z,70.65
2024-04-12T20:00:07.621Z,70.99
2024-04-12T20:02:34.881Z,71.16
2024-04-12T20:05:01.823Z,70.99
2024-04-12T20:07:29.432Z,71.19
2024-04-12T20:09:56.364Z,72.37
2024-04-12T20:12:23.379Z,72.46
2024-04-12T20:14:53.968Z,72.34
2024-04-12T20:17:22.733Z,72.88
2024-04-12T20:19:53.333Z,73.43
2024-04-12T20:22:23.214Z,72.99
2024-04-12T20:24:50.245Z,71.81
2024-04-12T20:27:20.543Z,73.25
2024-04-12T20:29:58.702Z,73.45
2024-04-12T20:32:25.916Z,73.62
2024-04-12T20:35:11.819Z,72.93
2024-04-12T20:37:38.994Z,73.26
2024-04-12T20:40:06.492Z,73.90
2024-04-12T20:42:33.491Z,74.62
2024-04-12T20:45:00.656Z,74.05
2024-04-12T20:47:30.783Z,74.53
2024-04-12T20:49:57.742Z,75.61
2024-04-12T20:52:24.887Z,75.58
2024-04-12T20:54:51.868Z,75.87
2024-04-12T20:57:19.100Z,75.20
2024-04-12T20:59:52.368Z,75.92
2024-04-12T21:02:19.547Z,75.87
2024-04-12T21:04:50.967Z,75.85
2024-04-12T21:07:18.199Z,76.47
2024-04-12T21:09:45.096Z,75.60
2024-04-12T21:12:12.050Z,76.81
2024-04-12T21:14:41.173Z,76.58
2024-04-12T21:17:09.578Z,77.31
2024-04-12T21:19:36.544Z,76.79
2024-04-12T21:22:03.456Z,77.10
2024-04-12T21:24:31.349Z,78.18
2024-04-12T21:26:58.353Z,77.60
2024-04-12T21:29:25.424Z,78.50
2024-04-12T21:31:52.337Z,77.64
2024-04-12T21:34:19.744Z,78.19
2024-04-12T21:36:46.684Z,78.28
2024-04-12T21:39:14.588Z,78.05
2024-04-12T21:41:41.591Z,78.03
2024-04-12T21:44:09.712Z,78.24
2024-04-12T21:46:38.799Z,77.76
2024-04-12T21:49:05.795Z,78.12
2024-04-12T21:51:32.865Z,78.49
2024-04-12T21:54:01.436Z,78.73
2024-04-12T21:56:28.709Z,79.54
2024-04-12T21:58:55.671Z,78.65
2024-04-12T22:01:22.598Z,78.52
2024-04-12T22:03:49.661Z,78.59
2024-04-12T22:06:17.005Z,78.62
2024-04-12T22:08:44.277Z,79.02
2024-04-12T22:11:11.417Z,78.31
2024-04-12T22:13:38.330Z,78.54
2024-04-12T22:16:05.952Z,78.88
2024-04-12T22:18:34.386Z,79.18
2024-04-12T22:21:06.970Z,79.28
2024-04-12T22:23:36.789Z,79.75
2024-04-12T22:26:07.329Z,79.66
2024-04-12T22:28:34.873Z,79.45
2024-04-12T22:31:04.184Z,79.46
2024-04-12T22:33:31.209Z,80.22
2024-04-12T22:35:58.241Z,79.88
2024-04-12T22:38:25.187Z,80.18
2024-04-12T22:40:56.556Z,80.48
2024-04-12T22:43:23.526Z,80.45
2024-04-12T22:45:50.453Z,80.24
2024-04-12T22:48:17.413Z,80.38
2024-04-12T22:50:44.363Z,80.64
2024-04-12T22:53:11.306Z,81.26
2024-04-12T22:55:38.254Z,80.50
2024-04-12T22:58:07.864Z,81.21
2024-04-12T23:00:39.146Z,80.84
2024-04-12T23:03:06.185Z,80.68
2024-04-12T23:05:33.461Z,81.71
2024-04-12T23:08:03.134Z,81.07
2024-04-12T23:10:30.315Z,81.10
2024-04-12T23:12:57.270Z,79.97
2024-04-12T23:15:24.346Z,79.88
2024-04-12T23:17:52.567Z,81.25
2024-04-12T23:20:19.631Z,80.86
2024-04-12T23:22:46.657Z,81.41
2024-04-12T23:25:13.581Z,81.77
2024-04-12T23:27:40.486Z,81.48
2024-04-12T23:30:07.848Z,81.88
2024-04-12T23:32:34.797Z,81.82
2024-04-12T23:35:02.767Z,81.08
2024-04-12T23:37:29.724Z,82.31
2024-04-12T23:39:56.648Z,81.97
2024-04-12T23:42:23.624Z,82.09
2024-04-12T23:44:50.557Z,82.41
2024-04-12T23:47:17.568Z,82.38
2024-04-12T23:49:44.496Z,83.13
2024-04-12T23:52:11.402Z,82.35
2024-04-12T23:54:38.327Z,82.76
2024-04-12T23:57:05.371Z,82.75
2024-04-12T23:59:32.355Z,83.16
